Uvalde Research's Hourly Summary for Thursday, February 16, 2017
Hour Temp
(f)
RH
(%)
Solar Rad.
(MJ/m2)
Rainfall
(in)
Wind
(mph)
2/16/2017 12:00 AM 47 61 0 0 0.09
2/16/2017 1:00 AM 45 69 0 0 0.09
2/16/2017 2:00 AM 44 69 0 0 0
2/16/2017 3:00 AM 43 73 0 0 0.04
2/16/2017 4:00 AM 41 78 0 0 0
2/16/2017 5:00 AM 40 82 0 0 0.02
2/16/2017 6:00 AM 40 83 0 0 0.2
2/16/2017 7:00 AM 41 76 0 0 0.65
2/16/2017 8:00 AM 42 72 0.11 0 1.24
2/16/2017 9:00 AM 48 61 0.68 0 1.45
2/16/2017 10:00 AM 53 51 1.34 0 2.35
2/16/2017 11:00 AM 57 46 1.88 0 2.93
2/16/2017 12:00 PM 60 36 2.19 0 3.15
2/16/2017 1:00 PM 63 32 2.45 0 2.98
2/16/2017 2:00 PM 65 31 2.33 0 2.68
2/16/2017 3:00 PM 66 29 2.12 0 2.38
2/16/2017 4:00 PM 66 28 1.38 0 2.35
2/16/2017 5:00 PM 66 28 0.9 0 1.98
2/16/2017 6:00 PM 66 28 0.51 0 1.59
2/16/2017 7:00 PM 63 32 0.04 0 0.61
2/16/2017 8:00 PM 59 41 0 0 0.05
2/16/2017 9:00 PM 58 42 0 0 1.42
2/16/2017 10:00 PM 55 50 0 0 1.1
2/16/2017 11:00 PM 52 56 0 0 1.14
Data Summary 53 52 15.93 0.00 1.27